sensor_id;sensor_type;location;lat;lon;timestamp;pressure;altitude;pressure_sealevel;temperature;humidity
25498;BME280;13406;53.380;7.226;2023-07-22T00:01:48;101886.56;;;14.52;100.00
25498;BME280;13406;53.380;7.226;2023-07-22T00:04:14;101929.19;;;14.57;100.00
25498;BME280;13406;53.380;7.226;2023-07-22T00:06:39;101868.03;;;14.49;100.00
25498;BME280;13406;53.380;7.226;2023-07-22T00:09:05;101845.00;;;14.46;100.00
25498;BME280;13406;53.380;7.226;2023-07-22T00:11:32;101855.19;;;14.51;100.00
25498;BME280;13406;53.380;7.226;2023-07-22T00:13:57;101836.69;;;14.07;100.00
25498;BME280;13406;53.380;7.226;2023-07-22T00:16:24;101905.38;;;14.67;100.00
25498;BME280;13406;53.380;7.226;2023-07-22T00:18:49;101791.97;;;13.63;100.00
25498;BME280;13406;53.380;7.226;2023-07-22T00:21:15;101870.75;;;14.14;100.00
25498;BME280;13406;53.380;7.226;2023-07-22T00:23:40;101888.19;;;14.12;100.00
25498;BME280;13406;53.380;7.226;2023-07-22T00:26:05;101886.38;;;14.25;100.00
25498;BME280;13406;53.380;7.226;2023-07-22T00:28:31;101899.09;;;14.32;100.00
25498;BME280;13406;53.380;7.226;2023-07-22T00:30:56;101891.78;;;14.25;100.00
25498;BME280;13406;53.380;7.226;2023-07-22T00:33:22;101930.59;;;14.24;100.00
25498;BME280;13406;53.380;7.226;2023-07-22T00:35:49;101935.06;;;14.11;100.00
25498;BME280;13406;53.380;7.226;2023-07-22T00:38:17;101900.03;;;14.17;100.00
25498;BME280;13406;53.380;7.226;2023-07-22T00:40:44;101890.66;;;14.41;100.00
25498;BME280;13406;53.380;7.226;2023-07-22T00:43:09;101852.53;;;14.58;100.00
25498;BME280;13406;53.380;7.226;2023-07-22T00:45:35;101793.91;;;14.04;100.00
25498;BME280;13406;53.380;7.226;2023-07-22T00:48:00;101837.59;;;14.55;100.00
25498;BME280;13406;53.380;7.226;2023-07-22T00:50:26;101813.63;;;14.04;100.00
25498;BME280;13406;53.380;7.226;2023-07-22T00:52:52;101870.53;;;14.44;100.00
25498;BME280;13406;53.380;7.226;2023-07-22T00:55:18;101842.91;;;14.48;100.00
25498;BME280;13406;53.380;7.226;2023-07-22T00:57:43;101821.78;;;14.52;100.00
25498;BME280;13406;53.380;7.226;2023-07-22T01:00:09;101800.13;;;14.39;100.00
25498;BME280;13406;53.380;7.226;2023-07-22T01:02:39;101805.91;;;14.36;100.00
25498;BME280;13406;53.380;7.226;2023-07-22T01:05:05;101795.94;;;14.36;100.00
25498;BME280;13406;53.380;7.226;2023-07-22T01:07:31;101719.91;;;13.78;100.00
25498;BME280;13406;53.380;7.226;2023-07-22T01:09:57;101807.59;;;14.02;100.00
25498;BME280;13406;53.380;7.226;2023-07-22T01:12:23;101794.31;;;14.00;100.00
25498;BME280;13406;53.380;7.226;2023-07-22T01:14:50;101809.25;;;14.38;100.00
25498;BME280;13406;53.380;7.226;2023-07-22T01:17:15;101793.47;;;14.41;100.00
25498;BME280;13406;53.380;7.226;2023-07-22T01:19:41;101814.66;;;14.38;100.00
25498;BME280;13406;53.380;7.226;2023-07-22T01:22:07;101807.69;;;14.22;100.00
25498;BME280;13406;53.380;7.226;2023-07-22T01:24:36;101829.78;;;14.32;100.00
25498;BME280;13406;53.380;7.226;2023-07-22T01:27:03;101792.59;;;14.28;100.00
25498;BME280;13406;53.380;7.226;2023-07-22T01:29:33;101725.69;;;13.75;100.00
25498;BME280;13406;53.380;7.226;2023-07-22T01:31:59;101705.50;;;13.64;100.00
25498;BME280;13406;53.380;7.226;2023-07-22T01:34:25;101787.69;;;14.51;100.00
25498;BME280;13406;53.380;7.226;2023-07-22T01:36:50;101733.09;;;14.01;100.00
25498;BME280;13406;53.380;7.226;2023-07-22T01:39:16;101787.59;;;14.24;100.00
25498;BME280;13406;53.380;7.226;2023-07-22T01:41:42;101769.91;;;14.15;100.00
25498;BME280;13406;53.380;7.226;2023-07-22T01:44:08;101734.72;;;13.95;100.00
25498;BME280;13406;53.380;7.226;2023-07-22T01:46:34;101760.84;;;14.30;100.00
25498;BME280;13406;53.380;7.226;2023-07-22T01:49:01;101718.59;;;14.09;100.00
25498;BME280;13406;53.380;7.226;2023-07-22T01:51:27;101751.97;;;14.01;100.00
25498;BME280;13406;53.380;7.226;2023-07-22T01:53:52;101747.53;;;14.28;100.00
25498;BME280;13406;53.380;7.226;2023-07-22T01:56:18;101722.41;;;14.28;100.00
25498;BME280;13406;53.380;7.226;2023-07-22T01:58:45;101744.50;;;14.44;100.00
25498;BME280;13406;53.380;7.226;2023-07-22T02:01:11;101755.94;;;14.46;100.00
25498;BME280;13406;53.380;7.226;2023-07-22T02:03:40;101724.84;;;14.09;100.00
25498;BME280;13406;53.380;7.226;2023-07-22T02:06:06;101773.06;;;14.25;100.00
25498;BME280;13406;53.380;7.226;2023-07-22T02:08:31;101814.97;;;14.21;100.00
25498;BME280;13406;53.380;7.226;2023-07-22T02:11:02;101748.09;;;14.10;100.00
25498;BME280;13406;53.380;7.226;2023-07-22T02:13:29;101785.75;;;14.32;100.00
25498;BME280;13406;53.380;7.226;2023-07-22T02:15:55;101757.75;;;14.39;100.00
25498;BME280;13406;53.380;7.226;2023-07-22T02:18:20;101735.09;;;14.27;100.00
25498;BME280;13406;53.380;7.226;2023-07-22T02:20:46;101747.38;;;14.43;100.00
25498;BME280;13406;53.380;7.226;2023-07-22T02:23:11;101700.97;;;14.06;100.00
25498;BME280;13406;53.380;7.226;2023-07-22T02:25:36;101735.06;;;14.20;100.00
25498;BME280;13406;53.380;7.226;2023-07-22T02:28:02;101705.34;;;13.72;100.00
25498;BME280;13406;53.380;7.226;2023-07-22T02:30:27;101765.41;;;14.29;100.00
25498;BME280;13406;53.380;7.226;2023-07-22T02:32:53;101771.38;;;14.18;100.00
25498;BME280;13406;53.380;7.226;2023-07-22T02:35:18;101664.72;;;13.18;100.00
25498;BME280;13406;53.380;7.226;2023-07-22T02:37:44;101826.50;;;14.09;100.00
25498;BME280;13406;53.380;7.226;2023-07-22T02:40:09;101764.25;;;14.10;100.00
25498;BME280;13406;53.380;7.226;2023-07-22T02:42:36;101712.53;;;14.00;100.00
25498;BME280;13406;53.380;7.226;2023-07-22T02:45:03;101746.22;;;14.17;100.00
25498;BME280;13406;53.380;7.226;2023-07-22T02:47:29;101742.94;;;14.15;100.00
25498;BME280;13406;53.380;7.226;2023-07-22T02:49:55;101746.63;;;14.14;100.00
25498;BME280;13406;53.380;7.226;2023-07-22T02:52:20;101715.63;;;13.97;100.00
25498;BME280;13406;53.380;7.226;2023-07-22T02:55:13;101642.13;;;13.40;100.00
25498;BME280;13406;53.380;7.226;2023-07-22T02:57:40;101762.63;;;14.16;100.00
25498;BME280;13406;53.380;7.226;2023-07-22T03:00:07;101739.41;;;14.15;100.00
25498;BME280;13406;53.380;7.226;2023-07-22T03:02:36;101768.75;;;13.96;100.00
25498;BME280;13406;53.380;7.226;2023-07-22T03:05:12;101792.59;;;13.93;100.00
25498;BME280;13406;53.380;7.226;2023-07-22T03:07:38;101800.69;;;13.93;100.00
25498;BME280;13406;53.380;7.226;2023-07-22T03:10:07;101814.28;;;13.78;100.00
25498;BME280;13406;53.380;7.226;2023-07-22T03:12:33;101829.63;;;13.77;100.00
25498;BME280;13406;53.380;7.226;2023-07-22T03:14:59;101851.63;;;13.81;100.00
25498;BME280;13406;53.380;7.226;2023-07-22T03:17:24;101845.09;;;13.97;100.00
25498;BME280;13406;53.380;7.226;2023-07-22T03:19:50;101810.59;;;13.86;100.00
25498;BME280;13406;53.380;7.226;2023-07-22T03:22:16;101768.09;;;13.60;100.00
25498;BME280;13406;53.380;7.226;2023-07-22T03:24:42;101871.72;;;13.78;100.00
25498;BME280;13406;53.380;7.226;2023-07-22T03:27:08;101884.16;;;14.01;100.00
25498;BME280;13406;53.380;7.226;2023-07-22T03:29:33;101854.53;;;14.08;100.00
25498;BME280;13406;53.380;7.226;2023-07-22T03:31:59;101775.31;;;13.81;100.00
25498;BME280;13406;53.380;7.226;2023-07-22T03:34:28;101816.91;;;13.99;100.00
25498;BME280;13406;53.380;7.226;2023-07-22T03:36:53;101758.31;;;13.87;100.00
25498;BME280;13406;53.380;7.226;2023-07-22T03:39:19;101795.00;;;14.09;100.00
25498;BME280;13406;53.380;7.226;2023-07-22T03:41:45;101806.47;;;13.62;100.00
25498;BME280;13406;53.380;7.226;2023-07-22T03:44:11;101847.63;;;13.98;100.00
25498;BME280;13406;53.380;7.226;2023-07-22T03:46:37;101825.78;;;13.93;100.00
25498;BME280;13406;53.380;7.226;2023-07-22T03:49:02;101823.84;;;13.81;100.00
25498;BME280;13406;53.380;7.226;2023-07-22T03:51:28;101897.81;;;13.50;100.00
25498;BME280;13406;53.380;7.226;2023-07-22T03:53:53;101914.31;;;13.83;100.00
25498;BME280;13406;53.380;7.226;2023-07-22T03:56:19;101688.31;;;12.66;100.00
25498;BME280;13406;53.380;7.226;2023-07-22T03:58:44;101872.63;;;13.86;100.00
25498;BME280;13406;53.380;7.226;2023-07-22T04:01:13;101875.81;;;13.96;100.00
25498;BME280;13406;53.380;7.226;2023-07-22T04:03:38;101789.31;;;13.69;100.00
25498;BME280;13406;53.380;7.226;2023-07-22T04:06:04;101823.66;;;13.18;100.00
25498;BME280;13406;53.380;7.226;2023-07-22T04:08:29;101901.38;;;13.78;100.00
25498;BME280;13406;53.380;7.226;2023-07-22T04:10:55;101853.50;;;13.59;100.00
25498;BME280;13406;53.380;7.226;2023-07-22T04:13:22;101877.50;;;13.75;100.00
25498;BME280;13406;53.380;7.226;2023-07-22T04:15:48;101857.59;;;13.48;100.00
25498;BME280;13406;53.380;7.226;2023-07-22T04:18:17;101925.91;;;13.41;100.00
25498;BME280;13406;53.380;7.226;2023-07-22T04:20:44;101937.25;;;13.36;100.00
25498;BME280;13406;53.380;7.226;2023-07-22T04:23:09;101929.06;;;13.66;100.00
25498;BME280;13406;53.380;7.226;2023-07-22T04:25:39;101895.78;;;14.01;100.00
25498;BME280;13406;53.380;7.226;2023-07-22T04:28:05;101868.06;;;13.86;100.00
25498;BME280;13406;53.380;7.226;2023-07-22T04:30:30;101868.91;;;13.87;100.00
25498;BME280;13406;53.380;7.226;2023-07-22T04:32:56;101884.03;;;13.88;100.00
25498;BME280;13406;53.380;7.226;2023-07-22T04:35:22;101811.59;;;14.13;100.00
25498;BME280;13406;53.380;7.226;2023-07-22T04:37:47;101742.28;;;14.13;100.00
25498;BME280;13406;53.380;7.226;2023-07-22T04:40:13;101772.09;;;13.98;100.00
25498;BME280;13406;53.380;7.226;2023-07-22T04:42:40;101776.13;;;13.81;100.00
25498;BME280;13406;53.380;7.226;2023-07-22T04:45:07;101804.91;;;14.09;100.00
25498;BME280;13406;53.380;7.226;2023-07-22T04:47:33;101671.03;;;13.03;100.00
25498;BME280;13406;53.380;7.226;2023-07-22T04:49:59;101811.28;;;14.29;100.00
25498;BME280;13406;53.380;7.226;2023-07-22T04:52:24;101809.59;;;13.65;100.00
25498;BME280;13406;53.380;7.226;2023-07-22T04:54:50;101814.75;;;13.60;100.00
25498;BME280;13406;53.380;7.226;2023-07-22T04:57:15;101932.84;;;13.93;100.00
25498;BME280;13406;53.380;7.226;2023-07-22T04:59:49;101939.31;;;13.98;100.00
25498;BME280;13406;53.380;7.226;2023-07-22T05:02:15;101949.91;;;14.00;100.00
25498;BME280;13406;53.380;7.226;2023-07-22T05:04:40;101877.38;;;13.62;100.00
25498;BME280;13406;53.380;7.226;2023-07-22T05:07:06;101921.09;;;14.00;100.00
25498;BME280;13406;53.380;7.226;2023-07-22T05:09:31;101916.31;;;14.02;100.00
25498;BME280;13406;53.380;7.226;2023-07-22T05:11:56;101968.69;;;13.87;100.00
25498;BME280;13406;53.380;7.226;2023-07-22T05:14:22;101946.06;;;13.88;100.00
25498;BME280;13406;53.380;7.226;2023-07-22T05:16:48;101942.72;;;14.07;100.00
25498;BME280;13406;53.380;7.226;2023-07-22T05:19:13;101893.63;;;14.18;100.00
25498;BME280;13406;53.380;7.226;2023-07-22T05:21:39;101877.75;;;14.37;100.00
25498;BME280;13406;53.380;7.226;2023-07-22T05:24:04;101857.22;;;14.42;100.00
25498;BME280;13406;53.380;7.226;2023-07-22T05:26:30;101829.94;;;14.24;100.00
25498;BME280;13406;53.380;7.226;2023-07-22T05:28:56;101841.00;;;14.36;100.00
25498;BME280;13406;53.380;7.226;2023-07-22T05:31:21;101818.78;;;13.99;100.00
25498;BME280;13406;53.380;7.226;2023-07-22T05:33:47;101899.09;;;14.32;100.00
25498;BME280;13406;53.380;7.226;2023-07-22T05:36:12;101891.72;;;14.12;100.00
25498;BME280;13406;53.380;7.226;2023-07-22T05:38:38;101913.75;;;14.22;100.00
25498;BME280;13406;53.380;7.226;2023-07-22T05:41:03;101928.47;;;14.20;100.00
25498;BME280;13406;53.380;7.226;2023-07-22T05:43:28;101965.34;;;14.06;100.00
25498;BME280;13406;53.380;7.226;2023-07-22T05:45:54;102001.16;;;14.00;100.00
25498;BME280;13406;53.380;7.226;2023-07-22T05:48:19;102025.97;;;14.10;100.00
25498;BME280;13406;53.380;7.226;2023-07-22T05:50:46;102037.63;;;14.17;100.00
25498;BME280;13406;53.380;7.226;2023-07-22T05:53:13;102013.13;;;14.12;100.00
25498;BME280;13406;53.380;7.226;2023-07-22T05:55:38;101962.63;;;13.85;100.00
25498;BME280;13406;53.380;7.226;2023-07-22T05:58:04;101957.63;;;13.82;100.00
25498;BME280;13406;53.380;7.226;2023-07-22T06:00:33;101963.50;;;14.13;100.00
25498;BME280;13406;53.380;7.226;2023-07-22T06:02:59;101967.47;;;14.17;100.00
25498;BME280;13406;53.380;7.226;2023-07-22T06:05:24;101947.53;;;14.40;100.00
25498;BME280;13406;53.380;7.226;2023-07-22T06:07:50;101891.59;;;14.27;100.00
25498;BME280;13406;53.380;7.226;2023-07-22T06:10:15;101879.50;;;14.23;100.00
25498;BME280;13406;53.380;7.226;2023-07-22T06:12:41;101918.06;;;14.45;100.00
25498;BME280;13406;53.380;7.226;2023-07-22T06:15:07;101867.97;;;14.64;100.00
25498;BME280;13406;53.380;7.226;2023-07-22T06:17:37;101766.81;;;14.18;100.00
25498;BME280;13406;53.380;7.226;2023-07-22T06:20:03;101831.25;;;14.76;100.00
25498;BME280;13406;53.380;7.226;2023-07-22T06:22:29;101816.25;;;14.67;100.00
25498;BME280;13406;53.380;7.226;2023-07-22T06:24:55;101789.69;;;14.71;100.00
25498;BME280;13406;53.380;7.226;2023-07-22T06:27:20;101788.69;;;14.78;100.00
25498;BME280;13406;53.380;7.226;2023-07-22T06:29:45;101703.13;;;14.31;100.00
25498;BME280;13406;53.380;7.226;2023-07-22T06:32:11;101784.75;;;14.94;100.00
25498;BME280;13406;53.380;7.226;2023-07-22T06:34:36;101808.25;;;15.00;100.00
25498;BME280;13406;53.380;7.226;2023-07-22T06:37:02;101787.44;;;14.94;100.00
25498;BME280;13406;53.380;7.226;2023-07-22T06:39:28;101777.09;;;15.04;100.00
25498;BME280;13406;53.380;7.226;2023-07-22T06:41:53;101765.88;;;15.21;100.00
25498;BME280;13406;53.380;7.226;2023-07-22T06:44:19;101698.28;;;14.67;100.00
25498;BME280;13406;53.380;7.226;2023-07-22T06:46:44;101710.53;;;14.77;100.00
25498;BME280;13406;53.380;7.226;2023-07-22T06:49:10;101723.44;;;14.81;100.00
25498;BME280;13406;53.380;7.226;2023-07-22T06:51:35;101748.19;;;15.05;100.00
25498;BME280;13406;53.380;7.226;2023-07-22T06:54:02;101705.38;;;15.08;100.00
25498;BME280;13406;53.380;7.226;2023-07-22T06:56:28;101698.09;;;15.29;100.00
25498;BME280;13406;53.380;7.226;2023-07-22T06:58:53;101697.06;;;15.23;100.00
25498;BME280;13406;53.380;7.226;2023-07-22T07:01:19;101673.16;;;15.13;100.00
25498;BME280;13406;53.380;7.226;2023-07-22T07:03:44;101706.19;;;15.35;100.00
25498;BME280;13406;53.380;7.226;2023-07-22T07:06:11;101678.53;;;15.40;100.00
25498;BME280;13406;53.380;7.226;2023-07-22T07:08:37;101630.13;;;15.19;100.00
25498;BME280;13406;53.380;7.226;2023-07-22T07:11:02;101642.75;;;15.45;100.00
25498;BME280;13406;53.380;7.226;2023-07-22T07:13:28;101654.56;;;15.64;100.00
25498;BME280;13406;53.380;7.226;2023-07-22T07:15:54;101682.06;;;15.74;100.00
25498;BME280;13406;53.380;7.226;2023-07-22T07:18:20;101674.13;;;15.72;100.00
25498;BME280;13406;53.380;7.226;2023-07-22T07:20:45;101614.66;;;15.52;100.00
25498;BME280;13406;53.380;7.226;2023-07-22T07:23:12;101592.22;;;15.52;100.00
25498;BME280;13406;53.380;7.226;2023-07-22T07:25:38;101637.50;;;15.83;100.00
25498;BME280;13406;53.380;7.226;2023-07-22T07:28:04;101629.22;;;15.71;100.00
25498;BME280;13406;53.380;7.226;2023-07-22T07:30:30;101637.09;;;15.66;100.00
25498;BME280;13406;53.380;7.226;2023-07-22T07:32:56;101634.19;;;15.68;100.00
25498;BME280;13406;53.380;7.226;2023-07-22T07:35:21;101621.53;;;15.68;100.00
25498;BME280;13406;53.380;7.226;2023-07-22T07:37:47;101631.41;;;15.88;100.00
25498;BME280;13406;53.380;7.226;2023-07-22T07:40:12;101598.06;;;16.00;100.00
25498;BME280;13406;53.380;7.226;2023-07-22T07:42:38;101583.16;;;15.85;100.00
25498;BME280;13406;53.380;7.226;2023-07-22T07:45:04;101527.47;;;15.64;100.00
25498;BME280;13406;53.380;7.226;2023-07-22T07:47:29;101541.69;;;15.97;100.00
25498;BME280;13406;53.380;7.226;2023-07-22T07:49:55;101533.00;;;16.20;100.00
25498;BME280;13406;53.380;7.226;2023-07-22T07:52:21;101553.97;;;16.25;100.00
25498;BME280;13406;53.380;7.226;2023-07-22T07:54:47;101542.22;;;16.13;100.00
25498;BME280;13406;53.380;7.226;2023-07-22T07:57:12;101552.25;;;16.06;100.00
25498;BME280;13406;53.380;7.226;2023-07-22T07:59:38;101585.81;;;15.98;100.00
25498;BME280;13406;53.380;7.226;2023-07-22T08:02:04;101607.38;;;16.11;100.00
25498;BME280;13406;53.380;7.226;2023-07-22T08:04:34;101521.91;;;15.52;100.00
25498;BME280;13406;53.380;7.226;2023-07-22T08:06:59;101613.09;;;16.28;100.00
25498;BME280;13406;53.380;7.226;2023-07-22T08:09:24;101530.56;;;16.12;100.00
25498;BME280;13406;53.380;7.226;2023-07-22T08:11:50;101550.63;;;16.30;100.00
25498;BME280;13406;53.380;7.226;2023-07-22T08:14:15;101570.19;;;16.57;100.00
25498;BME280;13406;53.380;7.226;2023-07-22T08:16:42;101571.03;;;16.57;100.00
25498;BME280;13406;53.380;7.226;2023-07-22T08:19:07;101529.28;;;16.40;100.00
25498;BME280;13406;53.380;7.226;2023-07-22T08:21:33;101580.09;;;16.94;100.00
25498;BME280;13406;53.380;7.226;2023-07-22T08:23:58;101572.22;;;16.93;100.00
25498;BME280;13406;53.380;7.226;2023-07-22T08:26:24;101467.75;;;16.54;100.00
25498;BME280;13406;53.380;7.226;2023-07-22T08:28:49;101371.47;;;15.64;100.00
25498;BME280;13406;53.380;7.226;2023-07-22T08:31:15;101548.03;;;16.91;100.00
25498;BME280;13406;53.380;7.226;2023-07-22T08:33:40;101539.91;;;16.91;100.00
25498;BME280;13406;53.380;7.226;2023-07-22T08:36:06;101443.44;;;16.47;100.00
25498;BME280;13406;53.380;7.226;2023-07-22T08:38:31;101491.22;;;16.85;100.00
25498;BME280;13406;53.380;7.226;2023-07-22T08:40:56;101519.63;;;16.76;100.00
25498;BME280;13406;53.380;7.226;2023-07-22T08:43:23;101482.72;;;16.75;100.00
25498;BME280;13406;53.380;7.226;2023-07-22T08:45:51;101545.66;;;17.02;100.00
25498;BME280;13406;53.380;7.226;2023-07-22T08:48:17;101562.75;;;16.77;100.00
25498;BME280;13406;53.380;7.226;2023-07-22T08:50:51;101566.22;;;17.28;100.00
25498;BME280;13406;53.380;7.226;2023-07-22T08:53:17;101557.13;;;17.22;100.00
25498;BME280;13406;53.380;7.226;2023-07-22T08:55:46;101550.25;;;17.01;100.00
25498;BME280;13406;53.380;7.226;2023-07-22T08:58:15;101559.31;;;16.88;100.00
25498;BME280;13406;53.380;7.226;2023-07-22T09:00:42;101593.03;;;16.67;100.00
25498;BME280;13406;53.380;7.226;2023-07-22T09:03:09;101579.47;;;16.42;100.00
25498;BME280;13406;53.380;7.226;2023-07-22T09:05:35;101676.47;;;16.90;100.00
25498;BME280;13406;53.380;7.226;2023-07-22T09:08:02;101662.84;;;16.65;100.00
25498;BME280;13406;53.380;7.226;2023-07-22T09:10:29;101651.38;;;16.63;100.00
25498;BME280;13406;53.380;7.226;2023-07-22T09:12:55;101606.56;;;16.42;100.00
25498;BME280;13406;53.380;7.226;2023-07-22T09:15:20;101583.09;;;16.61;100.00
25498;BME280;13406;53.380;7.226;2023-07-22T09:17:46;101591.78;;;16.95;100.00
25498;BME280;13406;53.380;7.226;2023-07-22T09:20:13;101578.34;;;17.07;100.00
25498;BME280;13406;53.380;7.226;2023-07-22T09:22:46;101563.44;;;17.16;100.00
25498;BME280;13406;53.380;7.226;2023-07-22T09:27:39;101553.50;;;17.10;100.00
25498;BME280;13406;53.380;7.226;2023-07-22T09:30:20;101609.63;;;17.03;100.00
25498;BME280;13406;53.380;7.226;2023-07-22T09:32:46;101627.84;;;16.96;100.00
25498;BME280;13406;53.380;7.226;2023-07-22T09:35:18;101668.16;;;17.10;100.00
25498;BME280;13406;53.380;7.226;2023-07-22T09:37:44;101656.94;;;17.07;100.00
25498;BME280;13406;53.380;7.226;2023-07-22T09:40:13;101675.50;;;17.28;100.00
25498;BME280;13406;53.380;7.226;2023-07-22T09:42:40;101664.59;;;17.35;100.00
25498;BME280;13406;53.380;7.226;2023-07-22T09:45:08;101583.44;;;17.15;100.00
25498;BME280;13406;53.380;7.226;2023-07-22T09:47:42;101533.13;;;16.82;100.00
25498;BME280;13406;53.380;7.226;2023-07-22T09:50:17;101446.31;;;16.70;100.00
25498;BME280;13406;53.380;7.226;2023-07-22T09:55:18;101454.47;;;17.26;100.00
25498;BME280;13406;53.380;7.226;2023-07-22T09:57:55;101430.09;;;17.07;100.00
25498;BME280;13406;53.380;7.226;2023-07-22T10:00:23;101480.19;;;17.35;100.00
25498;BME280;13406;53.380;7.226;2023-07-22T10:02:51;101484.94;;;17.39;100.00
25498;BME280;13406;53.380;7.226;2023-07-22T10:05:18;101472.00;;;17.23;100.00
25498;BME280;13406;53.380;7.226;2023-07-22T10:07:50;101433.16;;;16.56;100.00
25498;BME280;13406;53.380;7.226;2023-07-22T10:10:18;101452.28;;;16.98;100.00
25498;BME280;13406;53.380;7.226;2023-07-22T10:12:44;101498.84;;;17.13;100.00
25498;BME280;13406;53.380;7.226;2023-07-22T10:15:11;101464.66;;;16.93;100.00
25498;BME280;13406;53.380;7.226;2023-07-22T10:17:39;101472.97;;;16.73;100.00
25498;BME280;13406;53.380;7.226;2023-07-22T10:20:05;101470.53;;;16.65;100.00
25498;BME280;13406;53.380;7.226;2023-07-22T10:22:36;101501.81;;;16.86;100.00
25498;BME280;13406;53.380;7.226;2023-07-22T10:25:05;101502.59;;;16.93;100.00
25498;BME280;13406;53.380;7.226;2023-07-22T10:27:34;101451.69;;;16.77;100.00
25498;BME280;13406;53.380;7.226;2023-07-22T10:29:59;101418.41;;;16.70;100.00
25498;BME280;13406;53.380;7.226;2023-07-22T10:32:35;101434.94;;;16.87;100.00
25498;BME280;13406;53.380;7.226;2023-07-22T10:35:01;101447.84;;;17.03;100.00
25498;BME280;13406;53.380;7.226;2023-07-22T10:37:31;101445.59;;;17.00;100.00
25498;BME280;13406;53.380;7.226;2023-07-22T10:40:46;101426.91;;;16.73;100.00
25498;BME280;13406;53.380;7.226;2023-07-22T10:42:59;101515.06;;;16.94;100.00
25498;BME280;13406;53.380;7.226;2023-07-22T10:45:40;101608.59;;;16.79;100.00
25498;BME280;13406;53.380;7.226;2023-07-22T10:48:11;101663.72;;;16.59;100.00
25498;BME280;13406;53.380;7.226;2023-07-22T10:50:44;101689.50;;;16.68;100.00
25498;BME280;13406;53.380;7.226;2023-07-22T10:53:32;101646.44;;;16.22;100.00
25498;BME280;13406;53.380;7.226;2023-07-22T11:04:25;101737.84;;;17.03;100.00
25498;BME280;13406;53.380;7.226;2023-07-22T11:07:07;101805.59;;;17.10;100.00
25498;BME280;13406;53.380;7.226;2023-07-22T11:09:34;101827.97;;;16.99;100.00
25498;BME280;13406;53.380;7.226;2023-07-22T11:12:07;101817.19;;;16.72;100.00
25498;BME280;13406;53.380;7.226;2023-07-22T11:14:45;101854.72;;;16.82;100.00
25498;BME280;13406;53.380;7.226;2023-07-22T11:17:11;101872.81;;;16.88;100.00
25498;BME280;13406;53.380;7.226;2023-07-22T11:19:37;101825.13;;;16.15;100.00
25498;BME280;13406;53.380;7.226;2023-07-22T11:22:04;101925.78;;;16.84;100.00
25498;BME280;13406;53.380;7.226;2023-07-22T11:24:33;101918.53;;;16.64;100.00
25498;BME280;13406;53.380;7.226;2023-07-22T11:27:03;102047.91;;;16.69;100.00
25498;BME280;13406;53.380;7.226;2023-07-22T11:29:28;102068.13;;;16.73;100.00
25498;BME280;13406;53.380;7.226;2023-07-22T11:31:54;102045.00;;;16.57;100.00
25498;BME280;13406;53.380;7.226;2023-07-22T11:34:22;102011.28;;;16.26;100.00
25498;BME280;13406;53.380;7.226;2023-07-22T11:36:49;102122.72;;;16.50;100.00
25498;BME280;13406;53.380;7.226;2023-07-22T11:39:20;102071.56;;;15.87;100.00
25498;BME280;13406;53.380;7.226;2023-07-22T11:41:46;102182.25;;;16.30;100.00
25498;BME280;13406;53.380;7.226;2023-07-22T11:44:18;102182.06;;;16.38;100.00
25498;BME280;13406;53.380;7.226;2023-07-22T11:47:02;102114.25;;;15.92;100.00
25498;BME280;13406;53.380;7.226;2023-07-22T11:49:34;102149.69;;;16.10;100.00
25498;BME280;13406;53.380;7.226;2023-07-22T11:52:05;102114.50;;;15.97;100.00
25498;BME280;13406;53.380;7.226;2023-07-22T11:54:33;102121.44;;;16.39;100.00
25498;BME280;13406;53.380;7.226;2023-07-22T11:57:19;102111.81;;;16.17;100.00
25498;BME280;13406;53.380;7.226;2023-07-22T11:59:49;102100.09;;;15.83;100.00
25498;BME280;13406;53.380;7.226;2023-07-22T12:02:20;102000.41;;;15.25;100.00
25498;BME280;13406;53.380;7.226;2023-07-22T12:05:12;102155.09;;;15.97;100.00
25498;BME280;13406;53.380;7.226;2023-07-22T12:07:38;102134.22;;;15.91;100.00
25498;BME280;13406;53.380;7.226;2023-07-22T12:10:05;102148.81;;;15.90;100.00
25498;BME280;13406;53.380;7.226;2023-07-22T12:12:35;102102.16;;;15.88;100.00
25498;BME280;13406;53.380;7.226;2023-07-22T12:15:21;102074.03;;;15.82;100.00
25498;BME280;13406;53.380;7.226;2023-07-22T12:18:00;102093.19;;;15.80;100.00
25498;BME280;13406;53.380;7.226;2023-07-22T12:20:33;102110.75;;;16.04;100.00
25498;BME280;13406;53.380;7.226;2023-07-22T12:22:59;102111.34;;;15.93;100.00
25498;BME280;13406;53.380;7.226;2023-07-22T12:25:25;102116.72;;;15.80;100.00
25498;BME280;13406;53.380;7.226;2023-07-22T12:27:51;102148.34;;;15.79;100.00
25498;BME280;13406;53.380;7.226;2023-07-22T12:30:17;102162.72;;;15.80;100.00
25498;BME280;13406;53.380;7.226;2023-07-22T12:32:43;102141.78;;;15.60;100.00
25498;BME280;13406;53.380;7.226;2023-07-22T12:35:09;102181.69;;;15.87;100.00
25498;BME280;13406;53.380;7.226;2023-07-22T12:37:35;102186.03;;;15.88;100.00
25498;BME280;13406;53.380;7.226;2023-07-22T12:40:00;102162.19;;;15.63;100.00
25498;BME280;13406;53.380;7.226;2023-07-22T12:42:26;102144.25;;;15.62;100.00
25498;BME280;13406;53.380;7.226;2023-07-22T12:44:52;102131.47;;;15.71;100.00
25498;BME280;13406;53.380;7.226;2023-07-22T12:47:17;102071.97;;;15.36;100.00
25498;BME280;13406;53.380;7.226;2023-07-22T12:49:45;102136.88;;;15.71;100.00
25498;BME280;13406;53.380;7.226;2023-07-22T12:52:11;102144.59;;;15.80;100.00
25498;BME280;13406;53.380;7.226;2023-07-22T12:54:37;102125.66;;;15.74;100.00